Time;durP1;ratioP1;P1;durP2;ratioP2;P2;SDS_P1;SDS_P2;PMS_P1;PMS_P2;Temp;Humidity;BMP_temperature;BMP_pressure;BME280_temperature;BME280_humidity;BME280_pressure;Samples;Min_cycle;Max_cycle;Signal;HPM_P1;HPM_P2
2021/04/03 00:00:59;;;;;;;6.10;2.13;;;6.30;53.70;;;;;;4315077;33;20134;-36
2021/04/03 00:03:26;;;;;;;5.37;2.37;;;6.20;53.50;;;;;;4327403;33;20083;-39
2021/04/03 00:05:53;;;;;;;11.63;2.40;;;6.30;53.30;;;;;;4328066;33;20508;-38
2021/04/03 00:08:23;;;;;;;7.57;2.30;;;6.30;53.10;;;;;;4338355;33;20162;-38
2021/04/03 00:10:59;;;;;;;5.53;2.70;;;6.30;53.00;;;;;;4344052;32;20513;-38
2021/04/03 00:13:31;;;;;;;8.10;3.53;;;6.30;53.30;;;;;;4344620;32;20538;-38
2021/04/03 00:15:57;;;;;;;5.30;2.13;;;6.40;53.20;;;;;;4344848;32;20152;-36
2021/04/03 00:18:24;;;;;;;10.00;2.43;;;6.40;53.10;;;;;;4343088;33;20071;-37
2021/04/03 00:20:51;;;;;;;8.97;2.40;;;6.40;53.00;;;;;;4344105;33;20059;-36
2021/04/03 00:23:21;;;;;;;6.77;2.43;;;6.40;52.80;;;;;;4344562;32;20094;-37
2021/04/03 00:25:48;;;;;;;8.67;2.33;;;6.40;52.80;;;;;;4342548;33;20161;-36
2021/04/03 00:28:15;;;;;;;5.20;2.70;;;6.40;52.80;;;;;;4344240;32;20158;-35
2021/04/03 00:30:42;;;;;;;7.50;2.47;;;6.40;52.90;;;;;;4344571;32;20619;-36
2021/04/03 00:33:09;;;;;;;4.43;2.23;;;6.40;52.90;;;;;;4342733;33;20070;-36
2021/04/03 00:35:41;;;;;;;7.07;2.73;;;6.40;52.90;;;;;;4351061;32;20074;-36
2021/04/03 00:38:09;;;;;;;4.37;2.80;;;6.50;53.00;;;;;;4358739;32;20072;-36
2021/04/03 00:40:47;;;;;;;5.30;2.37;;;6.40;52.90;;;;;;4359334;32;20091;-36
2021/04/03 00:43:18;;;;;;;4.83;2.37;;;6.40;53.10;;;;;;4359047;32;20066;-35
2021/04/03 00:45:45;;;;;;;5.37;2.50;;;6.50;53.10;;;;;;4359142;32;20469;-35
2021/04/03 00:48:12;;;;;;;9.00;3.23;;;6.40;53.10;;;;;;4360344;32;20081;-36
2021/04/03 00:50:40;;;;;;;6.17;3.47;;;6.40;53.40;;;;;;4341524;33;20075;-36
2021/04/03 00:53:12;;;;;;;11.73;3.40;;;6.40;53.70;;;;;;4313917;33;20087;-36
2021/04/03 00:55:39;;;;;;;5.53;2.80;;;6.30;53.80;;;;;;4314317;33;20177;-36
2021/04/03 00:58:06;;;;;;;5.80;2.03;;;6.20;53.60;;;;;;4285064;33;20067;-36
2021/04/03 01:00:33;;;;;;;5.93;2.60;;;6.20;53.50;;;;;;4285371;33;20091;-36
2021/04/03 01:02:59;;;;;;;11.83;3.47;;;6.20;53.30;;;;;;4297277;33;20072;-36
2021/04/03 01:05:27;;;;;;;4.30;1.70;;;6.30;53.10;;;;;;4273824;33;20172;-37
2021/04/03 01:07:54;;;;;;;2.87;1.47;;;6.30;52.90;;;;;;4297334;33;20519;-36
2021/04/03 01:10:25;;;;;;;11.00;1.57;;;6.40;52.40;;;;;;4297193;33;20076;-37
2021/04/03 01:13:06;;;;;;;3.63;1.27;;;6.30;52.10;;;;;;4285976;33;20111;-37
2021/04/03 01:15:41;;;;;;;4.77;1.97;;;6.30;52.00;;;;;;4297364;33;20091;-37
2021/04/03 01:18:54;;;;;;;3.87;2.15;;;6.20;52.10;;;;;;4286288;33;20075;-38
2021/04/03 01:22:15;;;;;;;10.70;1.90;;;6.20;52.10;;;;;;4265269;33;20080;-38
2021/04/03 01:25:20;;;;;;;7.37;2.70;;;6.20;51.80;;;;;;4297639;33;20473;-38
2021/04/03 01:28:25;;;;;;;5.93;1.80;;;6.20;51.50;;;;;;4295599;33;20118;-38
2021/04/03 01:30:52;;;;;;;10.15;2.65;;;6.20;51.40;;;;;;4285627;33;20578;-38
2021/04/03 01:33:21;;;;;;;2.43;1.23;;;6.20;51.30;;;;;;4314522;33;20561;-38
2021/04/03 01:35:51;;;;;;;3.63;1.87;;;6.10;51.10;;;;;;4318467;33;20075;-38
2021/04/03 01:38:35;;;;;;;2.67;2.17;;;6.10;51.10;;;;;;4318704;33;20086;-38
2021/04/03 01:41:02;;;;;;;4.40;1.83;;;6.00;51.20;;;;;;4343878;32;20078;-38
2021/04/03 01:43:34;;;;;;;3.97;1.80;;;6.00;51.00;;;;;;4330021;33;20074;-38
2021/04/03 01:46:00;;;;;;;3.40;1.60;;;5.90;50.90;;;;;;4344051;32;20144;-38
2021/04/03 01:48:27;;;;;;;7.67;3.67;;;5.90;51.00;;;;;;4343519;32;20158;-38
2021/04/03 01:50:53;;;;;;;9.23;4.90;;;5.90;51.20;;;;;;4317156;33;20197;-38
2021/04/03 01:53:21;;;;;;;6.50;3.77;;;5.90;51.50;;;;;;4341535;33;20061;-38
2021/04/03 01:55:47;;;;;;;12.60;5.37;;;5.90;51.40;;;;;;4313692;33;20156;-37
2021/04/03 01:58:15;;;;;;;5.77;3.50;;;5.90;51.50;;;;;;4313873;33;20074;-39
2021/04/03 02:00:41;;;;;;;14.73;4.70;;;5.90;52.20;;;;;;4314053;33;20063;-38
2021/04/03 02:03:08;;;;;;;14.17;5.57;;;5.80;53.20;;;;;;4314028;33;20136;-38
2021/04/03 02:05:35;;;;;;;24.47;8.23;;;5.80;54.40;;;;;;4301615;33;20083;-36
2021/04/03 02:08:02;;;;;;;11.27;4.67;;;5.70;54.60;;;;;;4289836;33;20075;-37
2021/04/03 02:10:30;;;;;;;15.03;6.03;;;5.60;54.80;;;;;;4314469;33;20071;-37
2021/04/03 02:12:56;;;;;;;9.60;5.17;;;5.60;55.50;;;;;;4301977;33;20523;-37
2021/04/03 02:15:23;;;;;;;9.20;5.17;;;5.70;56.00;;;;;;4301994;33;20087;-39
2021/04/03 02:17:50;;;;;;;9.63;5.50;;;5.70;56.10;;;;;;4314052;33;20071;-38
2021/04/03 02:20:17;;;;;;;9.13;4.40;;;5.80;56.30;;;;;;4325836;33;20079;-38
2021/04/03 02:22:44;;;;;;;10.20;3.30;;;5.80;56.20;;;;;;4326023;33;20138;-38
2021/04/03 02:25:15;;;;;;;16.23;4.77;;;5.90;55.70;;;;;;4326299;33;20129;-38
2021/04/03 02:27:42;;;;;;;10.03;4.60;;;6.00;55.80;;;;;;4340869;33;20073;-38
2021/04/03 02:30:17;;;;;;;10.07;2.73;;;6.10;55.30;;;;;;4343407;32;20083;-38
2021/04/03 02:32:45;;;;;;;5.97;2.60;;;6.20;54.60;;;;;;4341504;33;20065;-38
2021/04/03 02:35:13;;;;;;;10.17;2.30;;;6.20;54.00;;;;;;4349236;32;20066;-38
2021/04/03 02:37:40;;;;;;;5.57;2.50;;;6.30;53.80;;;;;;4360970;32;20075;-38
2021/04/03 02:40:08;;;;;;;6.23;2.87;;;6.30;53.70;;;;;;4360973;32;20092;-38
2021/04/03 02:42:39;;;;;;;9.07;4.07;;;6.40;53.70;;;;;;4359504;32;20162;-39
2021/04/03 02:45:08;;;;;;;8.43;3.67;;;6.50;54.00;;;;;;4347837;32;20067;-38
2021/04/03 02:47:44;;;;;;;12.20;4.93;;;6.50;54.20;;;;;;4346888;32;20234;-38
2021/04/03 02:50:17;;;;;;;8.27;3.67;;;6.50;54.80;;;;;;4347039;32;20090;-38
2021/04/03 02:52:52;;;;;;;9.23;3.97;;;6.60;55.00;;;;;;4347209;32;20080;-38
2021/04/03 02:55:21;;;;;;;15.13;4.40;;;6.70;55.30;;;;;;4359562;32;20055;-38
2021/04/03 02:57:48;;;;;;;12.93;4.33;;;6.80;55.40;;;;;;4360563;32;20066;-35
2021/04/03 03:00:15;;;;;;;11.73;3.93;;;6.90;55.60;;;;;;4345142;32;20085;-36
2021/04/03 03:02:41;;;;;;;8.50;3.07;;;7.00;55.60;;;;;;4345956;32;20067;-36
2021/04/03 03:05:09;;;;;;;12.70;4.20;;;7.20;55.60;;;;;;4333959;32;20082;-36
2021/04/03 03:07:35;;;;;;;5.97;3.03;;;7.40;55.50;;;;;;4345724;32;20148;-38
2021/04/03 03:10:04;;;;;;;3.60;1.90;;;7.50;55.20;;;;;;4320924;32;20058;-37
2021/04/03 03:12:30;;;;;;;3.43;1.73;;;7.70;55.10;;;;;;4345493;32;20063;-38
2021/04/03 03:14:58;;;;;;;4.60;2.60;;;7.80;54.80;;;;;;4358139;32;20062;-39
2021/04/03 03:17:25;;;;;;;5.73;2.23;;;8.00;54.50;;;;;;4345852;32;20534;-39
2021/04/03 03:19:51;;;;;;;8.20;3.47;;;8.20;54.20;;;;;;4321182;32;20094;-37
2021/04/03 03:22:18;;;;;;;10.93;2.80;;;8.40;54.00;;;;;;4333263;32;20600;-38
2021/04/03 03:24:44;;;;;;;9.30;2.30;;;8.50;53.80;;;;;;4345392;32;20154;-38
2021/04/03 03:27:11;;;;;;;12.63;2.70;;;8.70;53.70;;;;;;4332728;32;20071;-35
2021/04/03 03:29:37;;;;;;;3.83;2.47;;;8.90;53.60;;;;;;4345095;32;20744;-38
2021/04/03 03:32:04;;;;;;;6.50;1.80;;;9.10;53.50;;;;;;4345349;32;20059;-38
2021/04/03 03:34:30;;;;;;;3.97;1.80;;;9.40;53.10;;;;;;4344845;32;20081;-38
2021/04/03 03:36:57;;;;;;;6.57;2.10;;;9.60;52.80;;;;;;4330969;33;20067;-37
2021/04/03 03:39:25;;;;;;;12.00;2.47;;;9.80;52.70;;;;;;4331470;33;20062;-38
2021/04/03 03:41:57;;;;;;;7.15;2.58;;;10.00;52.40;;;;;;4343437;33;20172;-37
2021/04/03 03:44:25;;;;;;;3.25;1.10;;;10.30;52.30;;;;;;4343999;33;20138;-37
2021/04/03 03:46:52;;;;;;;8.13;1.77;;;10.60;51.90;;;;;;4343909;33;20062;-38
2021/04/03 03:49:18;;;;;;;2.35;0.90;;;10.90;51.50;;;;;;4327548;33;20075;-36
2021/04/03 03:51:44;;;;;;;2.67;1.15;;;11.20;51.40;;;;;;4315765;33;20089;-38
2021/04/03 03:54:11;;;;;;;7.12;1.73;;;11.60;51.10;;;;;;4327870;33;20531;-36
2021/04/03 03:56:37;;;;;;;7.95;1.20;;;12.00;50.00;;;;;;4328356;33;20198;-37
2021/04/03 03:59:04;;;;;;;11.55;1.30;;;12.40;48.40;;;;;;4328619;33;20561;-38
2021/04/03 04:01:30;;;;;;;3.95;1.42;;;12.80;48.20;;;;;;4316021;33;20083;-40
2021/04/03 04:03:57;;;;;;;4.97;1.95;;;13.20;47.70;;;;;;4328101;33;20479;-38
2021/04/03 04:06:23;;;;;;;2.65;1.00;;;13.60;46.60;;;;;;4327771;33;20188;-37
2021/04/03 04:08:50;;;;;;;7.90;1.17;;;13.90;45.80;;;;;;4328134;33;20059;-39
2021/04/03 04:11:17;;;;;;;4.90;1.40;;;14.20;45.10;;;;;;4328390;33;20600;-39
2021/04/03 04:13:43;;;;;;;4.60;0.95;;;14.50;44.40;;;;;;4316379;33;20172;-38
2021/04/03 04:16:10;;;;;;;18.55;1.42;;;14.80;43.40;;;;;;4328741;33;20064;-40
2021/04/03 04:18:36;;;;;;;5.25;1.45;;;15.10;42.70;;;;;;4328475;33;20134;-38
2021/04/03 04:21:03;;;;;;;8.85;1.23;;;15.30;41.60;;;;;;4328661;33;20245;-40
2021/04/03 04:23:29;;;;;;;9.98;1.10;;;15.50;41.40;;;;;;4329132;33;20125;-40
2021/04/03 04:25:56;;;;;;;31.35;2.25;;;15.70;40.80;;;;;;4331488;33;20082;-38
2021/04/03 04:28:23;;;;;;;3.25;0.95;;;15.90;40.30;;;;;;4346562;32;20090;-38
2021/04/03 04:30:49;;;;;;;24.65;3.80;;;16.10;39.50;;;;;;4345932;33;20533;-39
2021/04/03 04:33:15;;;;;;;39.13;4.25;;;16.30;39.00;;;;;;4346525;32;20097;-38
2021/04/03 04:35:42;;;;;;;12.90;1.80;;;16.40;38.20;;;;;;4353442;32;20063;-38
2021/04/03 04:38:08;;;;;;;8.10;1.20;;;16.40;37.10;;;;;;4360691;32;20080;-37
2021/04/03 04:40:35;;;;;;;13.30;1.87;;;16.40;36.90;;;;;;4360041;32;20548;-39
2021/04/03 04:43:01;;;;;;;9.85;1.20;;;16.50;37.10;;;;;;4360270;32;20062;-38
2021/04/03 04:45:28;;;;;;;8.90;1.05;;;16.60;36.70;;;;;;4346857;32;20066;-38
2021/04/03 04:47:54;;;;;;;6.60;0.88;;;16.60;35.70;;;;;;4360226;32;20088;-38
2021/04/03 04:50:21;;;;;;;1.52;0.80;;;16.70;36.30;;;;;;4359613;32;20501;-37
2021/04/03 04:52:48;;;;;;;9.30;1.52;;;16.80;36.60;;;;;;4361018;32;20147;-40
2021/04/03 04:55:14;;;;;;;5.40;2.35;;;17.00;35.70;;;;;;4364691;32;20070;-39
2021/04/03 04:57:41;;;;;;;16.70;2.37;;;17.20;35.60;;;;;;4365664;32;20520;-39
2021/04/03 05:00:08;;;;;;;16.27;1.40;;;17.50;35.00;;;;;;4364992;32;20067;-39
2021/04/03 05:02:35;;;;;;;7.30;1.58;;;17.70;34.60;;;;;;4362899;32;20552;-40
2021/04/03 05:05:01;;;;;;;50.22;4.12;;;18.00;33.90;;;;;;4346005;33;20603;-40
2021/04/03 05:07:28;;;;;;;7.85;1.58;;;18.20;33.70;;;;;;4347198;33;20071;-39
2021/04/03 05:09:54;;;;;;;4.18;1.10;;;18.40;33.40;;;;;;4347914;33;20642;-39
2021/04/03 05:12:21;;;;;;;30.85;1.77;;;18.40;33.40;;;;;;4347675;33;20154;-40
2021/04/03 05:14:47;;;;;;;26.20;2.55;;;18.50;32.80;;;;;;4347980;33;20070;-39
2021/04/03 05:17:14;;;;;;;10.20;1.77;;;18.60;32.50;;;;;;4335159;33;20078;-40
2021/04/03 05:19:40;;;;;;;20.30;2.87;;;18.50;31.70;;;;;;4333867;33;20520;-39
2021/04/03 05:22:07;;;;;;;9.32;1.62;;;18.30;32.10;;;;;;4346113;33;20081;-40
2021/04/03 05:24:33;;;;;;;9.27;1.45;;;18.20;32.30;;;;;;4343971;33;20091;-41
2021/04/03 05:27:00;;;;;;;24.05;3.40;;;18.20;32.60;;;;;;4332467;33;20175;-42
2021/04/03 05:29:26;;;;;;;22.25;2.37;;;18.20;32.50;;;;;;4344483;33;20142;-40
2021/04/03 05:31:53;;;;;;;27.48;3.10;;;18.20;32.30;;;;;;4343372;33;20277;-41
2021/04/03 05:34:19;;;;;;;10.57;1.50;;;18.10;32.30;;;;;;4343264;33;20479;-40
2021/04/03 05:36:46;;;;;;;14.73;1.83;;;18.10;32.00;;;;;;4342497;33;20541;-41
2021/04/03 05:39:12;;;;;;;21.25;2.42;;;18.10;32.00;;;;;;4345282;33;20138;-40
2021/04/03 05:41:38;;;;;;;9.20;1.42;;;18.00;32.10;;;;;;4344957;32;20151;-40
2021/04/03 05:44:06;;;;;;;3.33;1.40;;;18.00;32.20;;;;;;4344589;32;20530;-40
2021/04/03 05:46:32;;;;;;;20.62;2.83;;;18.10;31.70;;;;;;4345890;32;20055;-39
2021/04/03 05:48:59;;;;;;;8.73;1.33;;;18.10;32.00;;;;;;4331286;33;20512;-38
2021/04/03 05:51:25;;;;;;;24.02;3.20;;;18.00;32.10;;;;;;4344108;32;20070;-40
2021/04/03 05:53:52;;;;;;;17.58;1.65;;;18.10;32.40;;;;;;4330438;33;20150;-39
2021/04/03 05:56:18;;;;;;;23.23;1.62;;;18.20;32.50;;;;;;4342560;33;20058;-40
2021/04/03 05:58:45;;;;;;;16.83;1.98;;;18.40;32.40;;;;;;4343892;32;20059;-38
2021/04/03 06:01:12;;;;;;;28.95;2.62;;;18.60;31.90;;;;;;4343889;32;20062;-40
2021/04/03 06:03:38;;;;;;;30.73;2.05;;;18.90;31.40;;;;;;4342804;33;20586;-40
2021/04/03 06:06:05;;;;;;;13.25;2.40;;;19.10;31.20;;;;;;4344261;32;20149;-39
2021/04/03 06:08:33;;;;;;;41.83;3.35;;;19.30;30.80;;;;;;4345395;32;20083;-41
2021/04/03 06:11:17;;;;;;;22.02;2.05;;;19.60;30.70;;;;;;4347518;32;20070;-41
2021/04/03 06:14:02;;;;;;;8.32;1.17;;;19.80;30.10;;;;;;4345803;33;20078;-41
2021/04/03 06:16:30;;;;;;;9.05;0.95;;;20.00;30.00;;;;;;4347889;32;20077;-39
2021/04/03 06:19:16;;;;;;;7.53;0.90;;;20.30;29.50;;;;;;4347229;32;20055;-41
2021/04/03 06:21:57;;;;;;;28.90;2.20;;;20.50;29.40;;;;;;4346062;33;20524;-39
2021/04/03 06:24:33;;;;;;;43.58;3.70;;;20.80;29.20;;;;;;4348013;32;20079;-41
2021/04/03 06:27:16;;;;;;;12.02;1.15;;;20.90;29.00;;;;;;4347782;32;20082;-42
2021/04/03 06:29:48;;;;;;;13.25;1.33;;;20.90;28.60;;;;;;4347371;32;20591;-38
2021/04/03 06:32:20;;;;;;;23.52;2.05;;;20.90;28.80;;;;;;4346742;33;20055;-39
2021/04/03 06:34:49;;;;;;;16.08;1.70;;;20.80;28.70;;;;;;4348979;32;20447;-40
2021/04/03 06:37:29;;;;;;;20.73;2.30;;;20.70;28.70;;;;;;4361322;32;20515;-40
2021/04/03 06:40:00;;;;;;;12.75;1.62;;;20.70;28.70;;;;;;4359817;32;20156;-40
2021/04/03 06:42:55;;;;;;;23.10;2.75;;;20.70;29.00;;;;;;4361168;32;20066;-40
2021/04/03 06:45:23;;;;;;;19.33;2.00;;;20.80;29.00;;;;;;4361153;32;20073;-39
2021/04/03 06:47:52;;;;;;;5.78;1.00;;;20.90;28.80;;;;;;4361160;32;20144;-40
2021/04/03 06:50:20;;;;;;;6.05;1.12;;;20.90;28.40;;;;;;4361265;32;20063;-39
2021/04/03 06:52:47;;;;;;;21.65;2.42;;;20.80;28.60;;;;;;4359864;32;20055;-40
2021/04/03 06:55:16;;;;;;;25.42;2.37;;;20.70;28.60;;;;;;4361364;32;20070;-40
2021/04/03 06:57:44;;;;;;;5.57;1.25;;;20.60;28.70;;;;;;4361216;32;20059;-40
2021/04/03 07:00:13;;;;;;;9.90;1.23;;;20.60;28.90;;;;;;4361133;32;20074;-40
2021/04/03 07:03:03;;;;;;;18.67;1.70;;;20.70;28.90;;;;;;4361141;32;20105;-41
2021/04/03 07:05:34;;;;;;;22.25;2.22;;;20.80;28.80;;;;;;4360725;32;20419;-40
2021/04/03 07:08:06;;;;;;;9.05;0.80;;;20.90;28.60;;;;;;4346517;32;20066;-40
2021/04/03 07:10:33;;;;;;;3.90;0.62;;;20.90;28.60;;;;;;4360552;32;20186;-40
2021/04/03 07:13:00;;;;;;;11.88;1.30;;;20.90;28.60;;;;;;4358874;32;20059;-40
2021/04/03 07:15:29;;;;;;;5.15;0.80;;;21.10;28.50;;;;;;4359115;32;20078;-39
2021/04/03 07:17:56;;;;;;;27.73;2.37;;;21.10;28.30;;;;;;4360653;32;20514;-39
2021/04/03 07:20:30;;;;;;;31.25;4.12;;;21.00;28.40;;;;;;4360168;32;20074;-37
2021/04/03 07:23:02;;;;;;;6.50;1.10;;;20.90;28.30;;;;;;4360398;32;20055;-40
2021/04/03 07:25:30;;;;;;;8.15;1.08;;;20.70;28.50;;;;;;4358800;32;20093;-41
2021/04/03 07:27:57;;;;;;;13.70;1.50;;;20.50;28.50;;;;;;4346660;32;20062;-41
2021/04/03 07:30:35;;;;;;;27.02;2.45;;;20.20;28.90;;;;;;4358916;32;20054;-38
2021/04/03 07:33:15;;;;;;;33.03;3.45;;;20.10;29.20;;;;;;4360469;32;20059;-40
2021/04/03 07:35:50;;;;;;;12.93;1.58;;;20.10;29.40;;;;;;4352849;32;20130;-39
2021/04/03 07:38:31;;;;;;;23.58;3.17;;;20.20;29.20;;;;;;4345364;33;20539;-41
2021/04/03 07:40:59;;;;;;;58.05;5.87;;;20.20;29.50;;;;;;4345181;33;20506;-39
2021/04/03 07:43:49;;;;;;;51.45;3.97;;;20.30;29.60;;;;;;4331339;33;20093;-40
2021/04/03 07:46:21;;;;;;;8.70;1.42;;;20.60;29.60;;;;;;4345331;33;20529;-41
2021/04/03 07:48:53;;;;;;;16.98;1.37;;;20.90;29.00;;;;;;4345006;33;20069;-41
2021/04/03 07:51:26;;;;;;;55.72;3.30;;;21.20;28.80;;;;;;4343658;33;20089;-41
2021/04/03 07:53:57;;;;;;;19.45;1.60;;;21.60;28.40;;;;;;4345016;33;20079;-39
2021/04/03 07:56:51;;;;;;;46.95;3.10;;;21.80;28.00;;;;;;4344144;33;20066;-40
2021/04/03 07:59:38;;;;;;;13.30;1.70;;;21.90;27.90;;;;;;4344015;33;20047;-40
2021/04/03 08:02:05;;;;;;;20.62;2.10;;;21.80;27.60;;;;;;4343491;33;20555;-39
2021/04/03 08:04:31;;;;;;;9.05;1.30;;;21.60;27.80;;;;;;4343331;33;20124;-39
2021/04/03 08:07:01;;;;;;;13.15;1.77;;;21.40;28.10;;;;;;4343157;33;20063;-40
2021/04/03 08:09:32;;;;;;;10.55;1.67;;;21.30;28.30;;;;;;4343077;33;20063;-38
2021/04/03 08:11:58;;;;;;;8.05;1.83;;;21.30;28.40;;;;;;4344945;33;20075;-40
2021/04/03 08:14:31;;;;;;;36.33;2.97;;;21.30;28.30;;;;;;4344378;33;20074;-39
2021/04/03 08:16:59;;;;;;;6.47;1.12;;;21.30;28.40;;;;;;4344373;33;20428;-39
2021/04/03 08:19:27;;;;;;;58.75;6.03;;;21.20;28.40;;;;;;4344662;33;20146;-40
2021/04/03 08:21:53;;;;;;;33.95;5.05;;;21.30;28.40;;;;;;4344533;33;20086;-39
2021/04/03 08:24:20;;;;;;;20.42;2.10;;;21.30;28.40;;;;;;4344878;33;20140;-39
2021/04/03 08:26:48;;;;;;;29.55;2.12;;;21.30;28.30;;;;;;4344852;33;20105;-39
2021/04/03 08:29:25;;;;;;;9.18;1.30;;;21.30;28.30;;;;;;4342595;33;20071;-39
2021/04/03 08:31:53;;;;;;;14.50;1.60;;;21.30;28.20;;;;;;4343916;33;20074;-39
2021/04/03 08:34:19;;;;;;;16.42;1.65;;;21.20;28.30;;;;;;4344214;33;20067;-39
2021/04/03 08:36:46;;;;;;;12.65;1.62;;;21.20;28.50;;;;;;4358161;32;20532;-39
2021/04/03 08:39:15;;;;;;;14.15;1.87;;;21.00;28.20;;;;;;4359149;32;20066;-39
2021/04/03 08:41:43;;;;;;;12.02;1.55;;;20.70;28.50;;;;;;4358945;32;20145;-39
2021/04/03 08:44:25;;;;;;;35.58;3.22;;;20.60;28.80;;;;;;4359053;32;20082;-39
2021/04/03 08:46:54;;;;;;;15.13;2.37;;;20.40;29.10;;;;;;4359043;32;20217;-38
2021/04/03 08:49:25;;;;;;;9.40;1.67;;;20.40;29.10;;;;;;4358844;32;20062;-40
2021/04/03 08:51:52;;;;;;;22.70;2.37;;;20.40;29.20;;;;;;4358981;32;20052;-40
2021/04/03 08:54:18;;;;;;;18.05;1.80;;;20.50;29.30;;;;;;4358758;32;20094;-38
2021/04/03 08:56:45;;;;;;;33.50;4.60;;;20.50;29.10;;;;;;4358575;32;20128;-37
2021/04/03 08:59:16;;;;;;;10.07;1.33;;;20.50;29.20;;;;;;4357215;32;20066;-38
2021/04/03 09:01:48;;;;;;;13.80;1.98;;;20.50;29.20;;;;;;4358719;32;20451;-40
2021/04/03 09:04:15;;;;;;;23.83;2.40;;;20.70;29.00;;;;;;4358556;32;20090;-38
2021/04/03 09:06:50;;;;;;;13.73;2.60;;;21.00;28.70;;;;;;4356580;32;20073;-40
2021/04/03 09:09:19;;;;;;;15.75;2.00;;;21.10;28.70;;;;;;4358405;32;20070;-38
2021/04/03 09:11:55;;;;;;;13.05;1.85;;;20.90;28.50;;;;;;4358362;32;20062;-39
2021/04/03 09:14:34;;;;;;;17.15;1.67;;;20.50;28.80;;;;;;4358338;32;20470;-38
2021/04/03 09:17:01;;;;;;;29.37;1.45;;;20.20;29.20;;;;;;4358327;32;20059;-36
2021/04/03 09:19:35;;;;;;;14.15;2.15;;;19.90;29.50;;;;;;4358466;32;20078;-38
2021/04/03 09:22:02;;;;;;;12.25;1.75;;;19.90;29.70;;;;;;4358855;32;20083;-38
2021/04/03 09:24:42;;;;;;;29.50;3.12;;;19.80;29.60;;;;;;4358927;32;20062;-39
2021/04/03 09:27:18;;;;;;;5.60;1.30;;;19.70;29.80;;;;;;4358453;32;20073;-40
2021/04/03 09:30:09;;;;;;;12.57;1.35;;;19.70;29.70;;;;;;4358516;32;20174;-39
2021/04/03 09:32:43;;;;;;;11.65;1.20;;;19.50;29.80;;;;;;4358160;32;20078;-39
2021/04/03 09:35:11;;;;;;;25.67;3.00;;;19.10;30.10;;;;;;4352159;32;20275;-39
2021/04/03 09:37:38;;;;;;;2.12;0.88;;;18.80;30.80;;;;;;4342972;32;20062;-39
2021/04/03 09:40:07;;;;;;;27.27;2.37;;;18.80;30.90;;;;;;4325645;33;20083;-39
2021/04/03 09:42:33;;;;;;;13.18;1.85;;;18.80;31.10;;;;;;4325851;33;20063;-40
2021/04/03 09:45:03;;;;;;;23.62;3.08;;;18.80;31.00;;;;;;4326334;33;20059;-39
2021/04/03 09:47:30;;;;;;;7.55;1.48;;;18.60;31.30;;;;;;4325977;33;20550;-38
2021/04/03 09:49:56;;;;;;;4.65;1.10;;;18.50;31.30;;;;;;4325821;33;20599;-40
2021/04/03 09:52:24;;;;;;;29.20;3.72;;;18.40;31.40;;;;;;4313651;33;20098;-38
2021/04/03 09:54:50;;;;;;;21.48;1.73;;;18.20;31.90;;;;;;4301770;33;20625;-39
2021/04/03 09:57:17;;;;;;;6.62;1.00;;;18.10;32.20;;;;;;4325783;33;20075;-39
2021/04/03 09:59:44;;;;;;;17.52;1.55;;;18.10;32.20;;;;;;4325997;33;20074;-39
2021/04/03 10:02:11;;;;;;;17.25;1.40;;;18.00;32.50;;;;;;4325911;33;20067;-38
2021/04/03 10:04:38;;;;;;;23.70;1.08;;;18.10;32.80;;;;;;4313903;33;20063;-38
2021/04/03 10:07:05;;;;;;;15.95;1.37;;;18.20;32.40;;;;;;4326184;33;20514;-38
2021/04/03 10:09:31;;;;;;;25.37;2.25;;;18.50;32.00;;;;;;4326774;33;20056;-38
2021/04/03 10:11:58;;;;;;;9.70;1.95;;;18.60;31.80;;;;;;4325806;33;20082;-39
2021/04/03 10:14:25;;;;;;;8.02;0.98;;;18.80;31.60;;;;;;4325782;33;20157;-39
2021/04/03 10:16:51;;;;;;;26.05;2.72;;;18.90;31.50;;;;;;4314318;33;20083;-40
2021/04/03 10:19:18;;;;;;;28.67;2.37;;;18.90;31.20;;;;;;4313539;33;20074;-37
2021/04/03 10:21:44;;;;;;;46.78;3.28;;;19.00;31.20;;;;;;4313591;33;20115;-39
2021/04/03 10:24:11;;;;;;;25.65;2.60;;;19.00;31.50;;;;;;4325823;33;20544;-38
2021/04/03 10:26:37;;;;;;;21.08;1.60;;;19.10;31.70;;;;;;4325791;33;20101;-40
2021/04/03 10:29:04;;;;;;;11.30;0.95;;;19.30;31.40;;;;;;4325789;33;20079;-38
2021/04/03 10:31:30;;;;;;;13.05;1.30;;;19.40;31.00;;;;;;4326439;33;20095;-39
2021/04/03 10:33:57;;;;;;;24.25;1.50;;;19.60;30.80;;;;;;4313674;33;20078;-39
2021/04/03 10:36:24;;;;;;;14.82;1.73;;;19.70;30.60;;;;;;4337392;33;20315;-39
2021/04/03 10:38:50;;;;;;;60.95;4.93;;;19.90;30.40;;;;;;4340625;33;20201;-38
2021/04/03 10:41:17;;;;;;;9.82;1.02;;;20.10;30.30;;;;;;4340290;33;20094;-40
2021/04/03 10:43:44;;;;;;;9.98;1.50;;;20.20;30.00;;;;;;4354126;32;20157;-39
2021/04/03 10:46:10;;;;;;;24.73;1.90;;;20.30;30.00;;;;;;4357427;32;20159;-38
2021/04/03 10:48:37;;;;;;;10.88;1.00;;;20.40;29.80;;;;;;4357639;32;20078;-39
2021/04/03 10:51:05;;;;;;;24.05;2.33;;;20.50;29.40;;;;;;4340638;33;20629;-39
2021/04/03 10:53:31;;;;;;;36.10;4.32;;;20.30;29.40;;;;;;4303961;33;20569;-39
2021/04/03 10:55:58;;;;;;;20.50;1.30;;;20.30;29.70;;;;;;4341858;33;20086;-39
2021/04/03 10:58:24;;;;;;;20.17;2.58;;;20.30;29.60;;;;;;4343112;33;20297;-39
2021/04/03 11:00:51;;;;;;;11.05;0.90;;;20.20;29.60;;;;;;4330771;33;20115;-38
2021/04/03 11:03:17;;;;;;;16.62;0.90;;;20.20;29.60;;;;;;4328081;33;20082;-40
2021/04/03 11:05:44;;;;;;;40.90;4.20;;;20.10;29.60;;;;;;4328351;33;20093;-39
2021/04/03 11:08:10;;;;;;;13.98;1.00;;;20.00;29.90;;;;;;4328653;33;20173;-39
2021/04/03 11:10:37;;;;;;;7.80;1.58;;;19.90;29.70;;;;;;4328269;33;20145;-38
2021/04/03 11:13:04;;;;;;;22.00;1.48;;;19.90;29.60;;;;;;4328379;33;20230;-39
2021/04/03 11:15:31;;;;;;;25.23;2.10;;;19.90;29.60;;;;;;4328545;33;20153;-38
2021/04/03 11:17:57;;;;;;;24.70;2.90;;;20.00;29.80;;;;;;4328168;33;20079;-39
2021/04/03 11:20:24;;;;;;;24.12;2.20;;;20.10;29.70;;;;;;4328460;33;20087;-39
2021/04/03 11:22:51;;;;;;;34.53;1.58;;;20.30;29.60;;;;;;4328306;33;20172;-39
2021/04/03 11:25:17;;;;;;;20.20;1.52;;;20.60;29.10;;;;;;4328206;33;20071;-40
2021/04/03 11:27:44;;;;;;;17.12;1.40;;;21.00;29.00;;;;;;4333725;32;20121;-40
2021/04/03 11:30:13;;;;;;;26.00;2.00;;;21.30;28.60;;;;;;4357629;32;20079;-38
2021/04/03 11:32:47;;;;;;;4.75;1.08;;;21.60;28.20;;;;;;4334144;32;20081;-40
2021/04/03 11:35:16;;;;;;;13.20;1.13;;;21.80;27.70;;;;;;4355357;32;20110;-40
2021/04/03 11:37:43;;;;;;;44.30;4.22;;;22.00;27.50;;;;;;4345280;33;20432;-40
2021/04/03 11:40:10;;;;;;;16.98;1.45;;;22.20;27.30;;;;;;4344229;33;20163;-39
2021/04/03 11:42:37;;;;;;;26.12;2.53;;;22.30;27.10;;;;;;4345822;33;20063;-39
2021/04/03 11:45:06;;;;;;;39.30;2.67;;;22.40;26.90;;;;;;4345534;33;20078;-40
2021/04/03 11:47:36;;;;;;;17.23;1.77;;;22.50;26.80;;;;;;4343853;33;20064;-40
2021/04/03 11:50:04;;;;;;;22.83;1.75;;;22.70;26.50;;;;;;4344008;33;20148;-39
2021/04/03 11:52:32;;;;;;;16.05;1.00;;;22.70;26.30;;;;;;4345218;33;20466;-39
2021/04/03 11:54:59;;;;;;;24.05;1.50;;;22.80;26.10;;;;;;4343656;33;20107;-39
2021/04/03 11:57:27;;;;;;;21.85;0.82;;;23.10;26.00;;;;;;4345482;33;20074;-40
2021/04/03 11:59:53;;;;;;;28.73;2.33;;;23.10;25.70;;;;;;4345308;33;20086;-38
2021/04/03 12:02:20;;;;;;;26.60;1.37;;;23.20;25.80;;;;;;4345055;33;20062;-40
2021/04/03 12:04:46;;;;;;;11.20;0.70;;;23.20;25.50;;;;;;4343210;33;20151;-42
2021/04/03 12:07:13;;;;;;;13.43;1.62;;;23.20;25.50;;;;;;4344948;32;20102;-41
2021/04/03 12:09:39;;;;;;;26.30;1.55;;;23.20;25.30;;;;;;4342973;33;20073;-38
2021/04/03 12:12:07;;;;;;;7.37;0.80;;;23.20;25.40;;;;;;4345016;33;20106;-40
2021/04/03 12:14:34;;;;;;;11.02;0.60;;;23.20;25.20;;;;;;4345137;33;20185;-41
2021/04/03 12:17:01;;;;;;;12.82;0.88;;;23.10;25.20;;;;;;4344853;33;20163;-40
2021/04/03 12:19:27;;;;;;;19.83;1.02;;;23.00;25.10;;;;;;4344625;33;20541;-42
2021/04/03 12:21:54;;;;;;;34.53;1.48;;;22.70;25.40;;;;;;4344483;33;20082;-42
2021/04/03 12:24:20;;;;;;;11.63;1.17;;;22.40;25.50;;;;;;4344615;33;20557;-39
2021/04/03 12:26:47;;;;;;;26.08;2.92;;;22.20;25.80;;;;;;4343182;33;20471;-42
2021/04/03 12:29:14;;;;;;;32.90;1.87;;;21.90;26.00;;;;;;4344271;33;20516;-43
2021/04/03 12:31:40;;;;;;;21.00;1.17;;;21.70;26.20;;;;;;4344579;33;20196;-37
2021/04/03 12:34:07;;;;;;;20.58;1.73;;;21.50;26.40;;;;;;4343133;33;20140;-39
2021/04/03 12:36:33;;;;;;;9.02;1.02;;;21.50;26.40;;;;;;4342712;33;20078;-40
2021/04/03 12:39:00;;;;;;;16.02;1.30;;;21.40;26.40;;;;;;4344075;33;20093;-40
2021/04/03 12:41:26;;;;;;;28.83;2.17;;;21.30;26.70;;;;;;4344162;32;20078;-40
2021/04/03 12:43:53;;;;;;;22.27;2.22;;;21.30;26.80;;;;;;4344832;32;20124;-40
2021/04/03 12:46:19;;;;;;;28.77;2.45;;;21.40;26.70;;;;;;4344322;33;20138;-38
2021/04/03 12:48:45;;;;;;;18.95;1.85;;;21.40;26.60;;;;;;4344490;32;20097;-40
2021/04/03 12:51:12;;;;;;;19.85;1.90;;;21.50;26.70;;;;;;4344255;32;20150;-37
2021/04/03 12:53:39;;;;;;;12.15;0.60;;;21.50;26.60;;;;;;4344986;32;20098;-39